sensor_id;sensor_type;location;lat;lon;timestamp;P1;durP1;ratioP1;P2;durP2;ratioP2
64242;SDS011;50573;51.512;5.386;2022-07-05T00:05:37;10.10;;;6.13;;
64242;SDS011;50573;51.512;5.386;2022-07-05T00:15:42;11.32;;;6.70;;
64242;SDS011;50573;51.512;5.386;2022-07-05T00:25:45;10.93;;;7.93;;
64242;SDS011;50573;51.512;5.386;2022-07-05T00:35:49;10.88;;;7.78;;
64242;SDS011;50573;51.512;5.386;2022-07-05T00:45:52;14.30;;;8.30;;
64242;SDS011;50573;51.512;5.386;2022-07-05T00:55:57;13.90;;;9.10;;
64242;SDS011;50573;51.512;5.386;2022-07-05T01:06:00;10.98;;;9.10;;
64242;SDS011;50573;51.512;5.386;2022-07-05T01:16:06;12.30;;;8.37;;
64242;SDS011;50573;51.512;5.386;2022-07-05T01:26:12;12.60;;;8.27;;
64242;SDS011;50573;51.512;5.386;2022-07-05T01:36:15;13.77;;;8.70;;
64242;SDS011;50573;51.512;5.386;2022-07-05T01:46:20;17.30;;;10.27;;
64242;SDS011;50573;51.512;5.386;2022-07-05T01:56:26;15.18;;;9.32;;
64242;SDS011;50573;51.512;5.386;2022-07-05T02:06:31;11.10;;;9.15;;
64242;SDS011;50573;51.512;5.386;2022-07-05T02:16:37;20.40;;;9.55;;
64242;SDS011;50573;51.512;5.386;2022-07-05T02:26:42;9.80;;;7.95;;
64242;SDS011;50573;51.512;5.386;2022-07-05T02:36:47;10.70;;;8.63;;
64242;SDS011;50573;51.512;5.386;2022-07-05T02:46:51;16.27;;;10.85;;
64242;SDS011;50573;51.512;5.386;2022-07-05T02:56:55;13.88;;;10.10;;
64242;SDS011;50573;51.512;5.386;2022-07-05T03:07:02;12.30;;;9.27;;
64242;SDS011;50573;51.512;5.386;2022-07-05T03:17:05;12.27;;;8.95;;
64242;SDS011;50573;51.512;5.386;2022-07-05T03:27:11;11.73;;;10.20;;
64242;SDS011;50573;51.512;5.386;2022-07-05T03:37:22;14.95;;;11.38;;
64242;SDS011;50573;51.512;5.386;2022-07-05T03:47:27;13.43;;;11.23;;
64242;SDS011;50573;51.512;5.386;2022-07-05T03:57:30;17.23;;;8.53;;
64242;SDS011;50573;51.512;5.386;2022-07-05T04:07:36;17.65;;;13.05;;
64242;SDS011;50573;51.512;5.386;2022-07-05T04:17:50;17.42;;;12.93;;
64242;SDS011;50573;51.512;5.386;2022-07-05T04:27:58;17.55;;;14.18;;
64242;SDS011;50573;51.512;5.386;2022-07-05T04:38:04;19.27;;;13.68;;
64242;SDS011;50573;51.512;5.386;2022-07-05T04:48:12;17.95;;;14.60;;
64242;SDS011;50573;51.512;5.386;2022-07-05T05:08:20;17.33;;;12.73;;
64242;SDS011;50573;51.512;5.386;2022-07-05T05:18:23;14.93;;;13.03;;
64242;SDS011;50573;51.512;5.386;2022-07-05T05:28:30;16.95;;;11.70;;
64242;SDS011;50573;51.512;5.386;2022-07-05T05:38:33;16.23;;;10.63;;
64242;SDS011;50573;51.512;5.386;2022-07-05T05:48:37;16.80;;;11.82;;
64242;SDS011;50573;51.512;5.386;2022-07-05T05:58:40;13.25;;;11.27;;
64242;SDS011;50573;51.512;5.386;2022-07-05T06:08:46;17.08;;;12.10;;
64242;SDS011;50573;51.512;5.386;2022-07-05T06:18:49;14.98;;;10.95;;
64242;SDS011;50573;51.512;5.386;2022-07-05T06:28:53;14.02;;;10.63;;
64242;SDS011;50573;51.512;5.386;2022-07-05T06:39:05;15.65;;;11.35;;
64242;SDS011;50573;51.512;5.386;2022-07-05T06:49:12;17.02;;;10.75;;
64242;SDS011;50573;51.512;5.386;2022-07-05T06:59:16;13.93;;;10.73;;
64242;SDS011;50573;51.512;5.386;2022-07-05T07:09:46;14.27;;;9.13;;
64242;SDS011;50573;51.512;5.386;2022-07-05T07:19:49;12.52;;;7.53;;
64242;SDS011;50573;51.512;5.386;2022-07-05T07:29:54;12.70;;;7.68;;
64242;SDS011;50573;51.512;5.386;2022-07-05T07:39:57;16.88;;;7.32;;
64242;SDS011;50573;51.512;5.386;2022-07-05T07:50:04;20.90;;;8.63;;
64242;SDS011;50573;51.512;5.386;2022-07-05T08:00:11;19.70;;;7.38;;
64242;SDS011;50573;51.512;5.386;2022-07-05T08:10:25;20.25;;;8.07;;
64242;SDS011;50573;51.512;5.386;2022-07-05T08:20:28;13.37;;;9.00;;
64242;SDS011;50573;51.512;5.386;2022-07-05T08:30:50;20.48;;;10.77;;
64242;SDS011;50573;51.512;5.386;2022-07-05T08:40:54;18.25;;;10.35;;
64242;SDS011;50573;51.512;5.386;2022-07-05T08:50:59;14.85;;;8.52;;
64242;SDS011;50573;51.512;5.386;2022-07-05T09:01:03;15.85;;;7.30;;
64242;SDS011;50573;51.512;5.386;2022-07-05T09:11:10;14.45;;;5.75;;
64242;SDS011;50573;51.512;5.386;2022-07-05T09:21:15;11.95;;;5.88;;
64242;SDS011;50573;51.512;5.386;2022-07-05T09:31:26;12.75;;;5.22;;
64242;SDS011;50573;51.512;5.386;2022-07-05T09:41:31;13.02;;;4.07;;
64242;SDS011;50573;51.512;5.386;2022-07-05T10:01:58;6.47;;;3.33;;
64242;SDS011;50573;51.512;5.386;2022-07-05T10:12:02;10.37;;;4.10;;
64242;SDS011;50573;51.512;5.386;2022-07-05T10:22:06;8.57;;;4.43;;
64242;SDS011;50573;51.512;5.386;2022-07-05T10:32:21;9.75;;;4.30;;
64242;SDS011;50573;51.512;5.386;2022-07-05T10:42:26;9.40;;;3.10;;
64242;SDS011;50573;51.512;5.386;2022-07-05T10:52:33;8.63;;;3.88;;
64242;SDS011;50573;51.512;5.386;2022-07-05T11:02:37;7.18;;;3.20;;
64242;SDS011;50573;51.512;5.386;2022-07-05T11:12:45;5.00;;;2.28;;
64242;SDS011;50573;51.512;5.386;2022-07-05T11:33:26;7.00;;;2.30;;
64242;SDS011;50573;51.512;5.386;2022-07-05T11:43:55;4.65;;;2.60;;
64242;SDS011;50573;51.512;5.386;2022-07-05T11:54:01;5.72;;;3.20;;
64242;SDS011;50573;51.512;5.386;2022-07-05T12:04:22;14.43;;;3.30;;
64242;SDS011;50573;51.512;5.386;2022-07-05T12:14:48;8.20;;;2.75;;
64242;SDS011;50573;51.512;5.386;2022-07-05T12:24:53;5.72;;;1.80;;
64242;SDS011;50573;51.512;5.386;2022-07-05T12:35:03;9.07;;;1.70;;
64242;SDS011;50573;51.512;5.386;2022-07-05T12:45:11;5.20;;;1.30;;
64242;SDS011;50573;51.512;5.386;2022-07-05T12:55:20;5.88;;;1.63;;
64242;SDS011;50573;51.512;5.386;2022-07-05T13:05:41;8.00;;;1.35;;
64242;SDS011;50573;51.512;5.386;2022-07-05T13:15:45;1.70;;;0.98;;
64242;SDS011;50573;51.512;5.386;2022-07-05T13:25:49;6.30;;;1.67;;
64242;SDS011;50573;51.512;5.386;2022-07-05T13:35:53;2.95;;;1.00;;
64242;SDS011;50573;51.512;5.386;2022-07-05T13:46:00;8.30;;;1.40;;
64242;SDS011;50573;51.512;5.386;2022-07-05T13:56:13;4.18;;;1.35;;
64242;SDS011;50573;51.512;5.386;2022-07-05T14:06:17;6.07;;;1.27;;
64242;SDS011;50573;51.512;5.386;2022-07-05T14:16:26;5.35;;;1.17;;
64242;SDS011;50573;51.512;5.386;2022-07-05T14:26:32;4.47;;;1.20;;
64242;SDS011;50573;51.512;5.386;2022-07-05T14:36:44;3.47;;;1.08;;
64242;SDS011;50573;51.512;5.386;2022-07-05T14:46:50;9.17;;;1.43;;
64242;SDS011;50573;51.512;5.386;2022-07-05T14:56:57;4.28;;;1.20;;
64242;SDS011;50573;51.512;5.386;2022-07-05T15:07:05;2.90;;;1.15;;
64242;SDS011;50573;51.512;5.386;2022-07-05T15:17:11;7.93;;;1.92;;
64242;SDS011;50573;51.512;5.386;2022-07-05T15:27:24;4.45;;;1.35;;
64242;SDS011;50573;51.512;5.386;2022-07-05T15:37:34;3.38;;;0.93;;
64242;SDS011;50573;51.512;5.386;2022-07-05T15:47:37;3.22;;;1.00;;
64242;SDS011;50573;51.512;5.386;2022-07-05T15:57:48;2.42;;;0.80;;
64242;SDS011;50573;51.512;5.386;2022-07-05T16:07:54;3.45;;;1.05;;
64242;SDS011;50573;51.512;5.386;2022-07-05T16:28:11;3.67;;;1.25;;
64242;SDS011;50573;51.512;5.386;2022-07-05T16:38:22;1.60;;;1.10;;
64242;SDS011;50573;51.512;5.386;2022-07-05T16:48:28;5.65;;;1.33;;
64242;SDS011;50573;51.512;5.386;2022-07-05T16:58:39;3.85;;;1.20;;
64242;SDS011;50573;51.512;5.386;2022-07-05T17:08:45;4.63;;;1.95;;
64242;SDS011;50573;51.512;5.386;2022-07-05T17:18:57;6.38;;;1.58;;
64242;SDS011;50573;51.512;5.386;2022-07-05T17:29:01;3.70;;;1.75;;
64242;SDS011;50573;51.512;5.386;2022-07-05T17:39:06;5.37;;;1.57;;
64242;SDS011;50573;51.512;5.386;2022-07-05T17:49:18;3.05;;;1.30;;
64242;SDS011;50573;51.512;5.386;2022-07-05T17:59:29;4.15;;;1.30;;
64242;SDS011;50573;51.512;5.386;2022-07-05T18:09:35;6.38;;;1.60;;
64242;SDS011;50573;51.512;5.386;2022-07-05T18:19:43;10.18;;;1.80;;
64242;SDS011;50573;51.512;5.386;2022-07-05T18:29:52;7.47;;;1.67;;
64242;SDS011;50573;51.512;5.386;2022-07-05T18:40:00;6.70;;;2.20;;
64242;SDS011;50573;51.512;5.386;2022-07-05T18:50:12;5.55;;;1.75;;
64242;SDS011;50573;51.512;5.386;2022-07-05T19:00:23;3.92;;;1.30;;
64242;SDS011;50573;51.512;5.386;2022-07-05T19:10:27;6.22;;;1.40;;
64242;SDS011;50573;51.512;5.386;2022-07-05T19:20:49;6.40;;;1.30;;
64242;SDS011;50573;51.512;5.386;2022-07-05T19:31:06;4.57;;;1.20;;
64242;SDS011;50573;51.512;5.386;2022-07-05T19:41:11;4.70;;;1.35;;
64242;SDS011;50573;51.512;5.386;2022-07-05T19:51:15;3.47;;;1.55;;
64242;SDS011;50573;51.512;5.386;2022-07-05T20:01:20;4.13;;;1.85;;
64242;SDS011;50573;51.512;5.386;2022-07-05T20:11:23;6.70;;;1.95;;
64242;SDS011;50573;51.512;5.386;2022-07-05T20:21:48;3.85;;;1.55;;
64242;SDS011;50573;51.512;5.386;2022-07-05T20:31:51;3.33;;;1.47;;
64242;SDS011;50573;51.512;5.386;2022-07-05T20:41:56;5.30;;;1.88;;
64242;SDS011;50573;51.512;5.386;2022-07-05T20:51:59;6.23;;;1.83;;
64242;SDS011;50573;51.512;5.386;2022-07-05T21:02:04;7.55;;;2.72;;
64242;SDS011;50573;51.512;5.386;2022-07-05T21:12:08;13.18;;;3.15;;
64242;SDS011;50573;51.512;5.386;2022-07-05T21:22:13;7.88;;;2.20;;
64242;SDS011;50573;51.512;5.386;2022-07-05T21:32:16;5.53;;;2.53;;
64242;SDS011;50573;51.512;5.386;2022-07-05T21:42:20;7.88;;;2.70;;
64242;SDS011;50573;51.512;5.386;2022-07-05T21:52:23;7.30;;;2.30;;
64242;SDS011;50573;51.512;5.386;2022-07-05T22:02:27;7.15;;;2.85;;
64242;SDS011;50573;51.512;5.386;2022-07-05T22:12:48;6.88;;;3.70;;
64242;SDS011;50573;51.512;5.386;2022-07-05T22:22:53;13.13;;;3.35;;
64242;SDS011;50573;51.512;5.386;2022-07-05T22:32:56;9.80;;;3.37;;
64242;SDS011;50573;51.512;5.386;2022-07-05T22:43:00;9.05;;;3.00;;
64242;SDS011;50573;51.512;5.386;2022-07-05T22:53:03;6.80;;;3.90;;
64242;SDS011;50573;51.512;5.386;2022-07-05T23:03:08;10.35;;;3.75;;
64242;SDS011;50573;51.512;5.386;2022-07-05T23:13:18;23.05;;;4.28;;
64242;SDS011;50573;51.512;5.386;2022-07-05T23:23:28;9.07;;;3.70;;
64242;SDS011;50573;51.512;5.386;2022-07-05T23:33:31;5.87;;;4.20;;
64242;SDS011;50573;51.512;5.386;2022-07-05T23:43:36;8.93;;;4.63;;
64242;SDS011;50573;51.512;5.386;2022-07-05T23:53:39;11.40;;;5.47;;
